Terminal Aerodrome Forecast
Issued by NWS Buffalo, NY

Home | Current Version | Previous Version | Text Only | Print | Product List | Glossary On
Versions: 1 2 3 4 5 6 7 8 9 10 11 12 13 14 15 16 17 18 19 20 21 22 23 24 25 26 27 28
000
FTUS41 KBUF 281300 AAB
TAFBUF
TAF AMD
KBUF 281347Z 2814/2912 01011G19KT P6SM -RA OVC008
     FM281800 34013KT P6SM VCSH OVC025
     FM282100 32014KT P6SM OVC035
     FM290200 30010KT P6SM BKN050
     FM290300 30009KT P6SM SCT050
     FM291100 25005KT P6SM SCT050=

USA.gov is the U.S. government's official web portal to all federal, state and local government web resources and services.